Time;durP1;ratioP1;P1;durP2;ratioP2;P2;SDS_P1;SDS_P2;PMS_P1;PMS_P2;Temp;Humidity;BMP_temperature;BMP_pressure;BME280_temperature;BME280_humidity;BME280_pressure;Samples;Min_cycle;Max_cycle;Signal;HPM_P1;HPM_P2
2021/12/07 00:00:20;;;;;;;35.88;22.42;;;1.10;99.90;;;;;;4983958;28;20045;-76
2021/12/07 00:02:46;;;;;;;44.88;21.92;;;1.20;99.90;;;;;;4983909;28;20042;-75
2021/12/07 00:05:12;;;;;;;40.33;22.23;;;1.00;99.90;;;;;;4980109;28;20038;-76
2021/12/07 00:07:39;;;;;;;40.15;22.70;;;0.90;99.90;;;;;;5012918;28;20117;-75
2021/12/07 00:10:06;;;;;;;45.85;22.88;;;0.90;99.90;;;;;;4980671;28;20409;-76
2021/12/07 00:12:36;;;;;;;45.03;22.95;;;0.90;99.90;;;;;;4980449;28;20046;-75
2021/12/07 00:15:03;;;;;;;45.15;23.58;;;0.80;99.90;;;;;;4981537;28;20042;-75
2021/12/07 00:17:30;;;;;;;45.92;23.40;;;0.80;99.90;;;;;;4980074;28;20147;-75
2021/12/07 00:19:56;;;;;;;55.47;23.92;;;0.80;99.90;;;;;;4983794;28;20184;-75
2021/12/07 00:22:22;;;;;;;57.00;22.70;;;0.70;99.90;;;;;;4980298;28;20053;-76
2021/12/07 00:24:48;;;;;;;46.53;23.90;;;0.70;99.90;;;;;;5005197;28;20042;-76
2021/12/07 00:27:13;;;;;;;51.83;24.52;;;0.70;99.90;;;;;;4978706;28;20046;-76
2021/12/07 00:29:42;;;;;;;48.28;25.17;;;0.70;99.90;;;;;;4989449;28;20052;-76
2021/12/07 00:32:21;;;;;;;43.05;24.13;;;0.70;99.90;;;;;;4997065;28;20110;-76
2021/12/07 00:37:30;;;;;;;56.17;25.00;;;0.70;99.90;;;;;;4997120;28;20042;-76
2021/12/07 00:39:57;;;;;;;61.47;25.65;;;0.70;99.90;;;;;;5013469;28;20105;-75
2021/12/07 00:42:23;;;;;;;87.50;26.23;;;0.60;99.90;;;;;;4996232;28;20060;-76
2021/12/07 00:44:49;;;;;;;49.88;24.65;;;0.60;99.90;;;;;;4980067;28;20042;-75
2021/12/07 00:47:16;;;;;;;52.65;25.02;;;0.60;99.90;;;;;;4993618;28;20089;-76
2021/12/07 00:49:42;;;;;;;72.57;26.10;;;0.60;99.90;;;;;;4961120;28;20042;-76
2021/12/07 00:52:07;;;;;;;46.80;25.70;;;0.60;99.90;;;;;;4965813;28;20045;-76
2021/12/07 00:54:33;;;;;;;59.00;25.73;;;0.60;99.90;;;;;;4996221;28;20117;-75
2021/12/07 00:57:02;;;;;;;48.53;24.92;;;0.60;99.90;;;;;;4976492;28;20042;-76
2021/12/07 00:59:29;;;;;;;70.20;26.38;;;0.60;99.90;;;;;;4995993;28;20457;-76
2021/12/07 01:01:57;;;;;;;54.63;26.17;;;0.60;99.90;;;;;;4996325;28;20512;-76
2021/12/07 01:04:24;;;;;;;70.32;26.65;;;0.60;99.90;;;;;;4996351;28;20422;-76
2021/12/07 01:24:40;;;;;;;61.28;26.00;;;0.60;99.90;;;;;;4997571;28;20045;-76
2021/12/07 01:25:55;;;;;;;74.90;25.20;;;0.50;99.90;;;;;;4975345;28;20129;-76
2021/12/07 01:28:36;;;;;;;56.75;25.13;;;0.50;99.90;;;;;;4995964;28;20105;-76
2021/12/07 01:31:26;;;;;;;55.28;23.92;;;0.50;99.90;;;;;;4992878;28;20051;-75
2021/12/07 01:47:45;;;;;;;56.20;23.70;;;0.60;99.90;;;;;;4995381;28;20049;-77
2021/12/07 01:50:27;;;;;;;46.05;21.45;;;0.50;99.90;;;;;;5002662;28;20084;-76
2021/12/07 01:53:08;;;;;;;50.53;20.75;;;0.50;99.90;;;;;;4995143;28;20046;-76
2021/12/07 02:00:48;;;;;;;53.47;20.58;;;0.60;99.90;;;;;;5001844;28;20054;-75
2021/12/07 02:03:14;;;;;;;43.10;21.05;;;0.70;99.90;;;;;;4995193;28;20096;-76
2021/12/07 02:08:10;;;;;;;45.35;18.98;;;0.70;99.90;;;;;;5030543;28;20516;-73
2021/12/07 02:10:36;;;;;;;40.65;18.83;;;0.70;99.90;;;;;;5019409;28;20038;-75
2021/12/07 02:13:19;;;;;;;41.38;18.80;;;0.70;99.90;;;;;;5011277;28;20117;-73
2021/12/07 02:15:45;;;;;;;32.40;17.65;;;0.70;99.90;;;;;;5012549;28;20080;-73
2021/12/07 02:18:11;;;;;;;41.15;16.42;;;0.70;99.90;;;;;;5032092;28;20041;-73
2021/12/07 02:20:37;;;;;;;40.80;17.48;;;0.70;99.90;;;;;;5044088;28;20043;-72
2021/12/07 02:23:03;;;;;;;50.65;17.45;;;0.70;99.90;;;;;;5050373;28;20122;-73
2021/12/07 02:25:31;;;;;;;58.30;18.17;;;0.70;99.90;;;;;;5051135;28;20076;-73
2021/12/07 02:27:57;;;;;;;39.30;17.77;;;0.70;99.90;;;;;;5050655;28;20420;-73
2021/12/07 02:30:24;;;;;;;37.65;16.80;;;0.70;99.90;;;;;;5042727;28;20044;-72
2021/12/07 02:32:54;;;;;;;51.40;16.70;;;0.80;99.90;;;;;;5050727;28;20041;-73
2021/12/07 02:35:25;;;;;;;55.40;17.35;;;0.80;99.90;;;;;;5050691;28;20037;-73
2021/12/07 02:37:51;;;;;;;40.05;17.00;;;0.80;99.90;;;;;;5050605;28;20045;-73
2021/12/07 02:40:17;;;;;;;43.17;17.60;;;0.80;99.90;;;;;;5042702;28;20087;-73
2021/12/07 02:42:44;;;;;;;55.72;17.50;;;0.70;99.90;;;;;;5050205;28;20497;-73
2021/12/07 02:45:09;;;;;;;45.10;17.52;;;0.80;99.90;;;;;;5050512;28;20212;-73
2021/12/07 02:47:36;;;;;;;41.50;17.27;;;0.70;99.90;;;;;;5033604;28;20172;-73
2021/12/07 02:50:04;;;;;;;41.55;17.65;;;0.70;99.90;;;;;;5038018;28;20551;-72
2021/12/07 02:52:29;;;;;;;38.75;16.55;;;0.70;99.90;;;;;;5030417;28;20041;-73
2021/12/07 02:54:55;;;;;;;54.10;17.73;;;0.70;99.90;;;;;;5032702;28;20048;-73
2021/12/07 02:57:21;;;;;;;40.13;17.20;;;0.80;99.90;;;;;;5050535;28;20536;-73
2021/12/07 02:59:57;;;;;;;45.28;17.92;;;0.80;99.90;;;;;;5042832;28;20412;-73
2021/12/07 03:02:23;;;;;;;47.47;17.92;;;0.80;99.90;;;;;;5030450;28;20053;-73
2021/12/07 03:05:20;;;;;;;47.05;18.83;;;0.80;99.90;;;;;;5046751;28;20049;-73
2021/12/07 03:08:04;;;;;;;60.72;18.73;;;0.80;99.90;;;;;;5030089;28;20551;-73
2021/12/07 03:26:49;;;;;;;57.58;17.67;;;0.60;99.90;;;;;;5030009;28;20048;-73
2021/12/07 03:29:15;;;;;;;53.30;17.75;;;0.60;99.90;;;;;;5015716;28;20136;-73
2021/12/07 03:31:41;;;;;;;45.13;16.58;;;0.60;99.90;;;;;;5035040;28;20092;-73
2021/12/07 03:34:06;;;;;;;35.58;16.42;;;0.60;99.90;;;;;;5030071;28;20041;-73
2021/12/07 03:36:32;;;;;;;40.58;16.95;;;0.70;99.90;;;;;;5013783;28;20037;-73
2021/12/07 03:38:58;;;;;;;40.80;16.25;;;0.60;99.90;;;;;;5030264;28;20084;-73
2021/12/07 03:41:23;;;;;;;37.10;16.50;;;0.60;99.90;;;;;;5037405;28;20049;-73
2021/12/07 03:43:49;;;;;;;35.15;16.38;;;0.50;99.90;;;;;;5046171;28;20033;-74
2021/12/07 03:46:15;;;;;;;40.30;15.80;;;0.50;99.90;;;;;;5045455;28;20033;-74
2021/12/07 03:48:42;;;;;;;34.70;16.00;;;0.50;99.90;;;;;;5013489;28;20033;-73
2021/12/07 03:51:08;;;;;;;43.00;17.75;;;0.50;99.90;;;;;;5045377;28;20048;-73
2021/12/07 03:53:34;;;;;;;51.97;17.25;;;0.40;99.90;;;;;;5049578;28;20041;-73
2021/12/07 03:56:01;;;;;;;38.00;17.45;;;0.40;99.90;;;;;;5049967;28;20049;-73
2021/12/07 03:58:26;;;;;;;45.13;16.08;;;0.40;99.90;;;;;;5035423;28;20046;-73
2021/12/07 04:00:53;;;;;;;53.78;17.23;;;0.40;99.90;;;;;;5039545;28;20056;-74
2021/12/07 04:03:20;;;;;;;55.53;16.23;;;0.40;99.90;;;;;;5033412;28;20037;-73
2021/12/07 04:05:49;;;;;;;43.67;16.55;;;0.40;99.90;;;;;;5033342;28;20172;-73
2021/12/07 04:08:18;;;;;;;52.05;17.77;;;0.40;99.90;;;;;;5033554;28;20049;-73
2021/12/07 04:10:44;;;;;;;49.28;17.10;;;0.40;99.90;;;;;;5040119;28;20053;-73
2021/12/07 04:13:10;;;;;;;37.95;17.92;;;0.40;99.90;;;;;;5033109;28;20047;-74
2021/12/07 04:15:36;;;;;;;41.70;17.75;;;0.40;99.90;;;;;;5033243;28;20084;-74
2021/12/07 04:18:03;;;;;;;37.65;17.75;;;0.40;99.90;;;;;;5051895;28;20037;-73
2021/12/07 04:20:29;;;;;;;48.22;18.23;;;0.40;99.90;;;;;;5045260;28;20064;-73
2021/12/07 04:22:55;;;;;;;44.50;15.98;;;0.40;99.90;;;;;;5020928;28;20132;-73
2021/12/07 04:25:23;;;;;;;34.40;17.60;;;0.40;99.90;;;;;;5033137;28;20124;-73
2021/12/07 04:27:51;;;;;;;47.40;17.77;;;0.50;99.90;;;;;;5033013;28;20447;-73
2021/12/07 04:30:25;;;;;;;54.20;18.02;;;0.60;99.90;;;;;;5039726;28;20572;-73
2021/12/07 04:32:51;;;;;;;88.80;18.85;;;0.60;99.90;;;;;;5033045;28;20511;-73
2021/12/07 04:35:17;;;;;;;46.92;16.80;;;0.70;99.90;;;;;;5038782;28;20033;-74
2021/12/07 04:37:43;;;;;;;38.40;18.02;;;0.70;99.90;;;;;;5053026;28;20041;-74
2021/12/07 04:40:17;;;;;;;35.28;16.73;;;0.70;99.90;;;;;;5051720;28;20041;-73
2021/12/07 04:42:44;;;;;;;49.42;19.55;;;0.70;99.90;;;;;;5016425;28;20045;-74
2021/12/07 04:45:20;;;;;;;50.75;18.45;;;0.80;99.90;;;;;;5041871;28;20394;-74
2021/12/07 04:48:08;;;;;;;96.95;19.77;;;0.90;99.90;;;;;;5033018;28;20421;-74
2021/12/07 04:57:36;;;;;;;65.35;18.58;;;0.90;99.90;;;;;;5035883;28;20448;-73
2021/12/07 04:58:50;;;;;;;67.95;17.83;;;0.70;99.90;;;;;;5052533;28;20091;-74
2021/12/07 05:01:17;;;;;;;54.50;16.33;;;0.60;99.90;;;;;;5042618;28;20041;-73
2021/12/07 05:03:43;;;;;;;45.97;16.20;;;0.60;99.90;;;;;;5052265;28;20041;-73
2021/12/07 05:06:11;;;;;;;51.22;15.68;;;0.50;99.90;;;;;;5022325;28;20512;-74
2021/12/07 05:08:43;;;;;;;39.10;15.18;;;0.50;99.90;;;;;;5032325;28;20073;-74
2021/12/07 05:16:13;;;;;;;39.67;14.10;;;0.30;99.90;;;;;;5040121;28;20046;-74
2021/12/07 05:19:04;;;;;;;39.72;15.10;;;0.30;99.90;;;;;;5035847;28;20041;-74
2021/12/07 05:24:17;;;;;;;46.53;14.95;;;0.20;99.90;;;;;;5055074;28;20098;-74
2021/12/07 05:40:16;;;;;;;54.97;15.13;;;0.10;99.90;;;;;;5051324;28;20160;-74
2021/12/07 05:42:42;;;;;;;46.63;15.50;;;0.10;99.90;;;;;;5054325;28;20076;-74
2021/12/07 05:45:12;;;;;;;54.63;16.65;;;0.10;99.90;;;;;;5051124;28;20481;-74
2021/12/07 05:47:38;;;;;;;53.22;15.82;;;0.10;99.90;;;;;;5051566;28;20048;-74
2021/12/07 05:50:06;;;;;;;50.17;16.73;;;0.10;99.90;;;;;;5051388;28;20575;-74
2021/12/07 05:52:31;;;;;;;52.80;16.52;;;0.10;99.90;;;;;;5049810;28;20036;-74
2021/12/07 05:54:57;;;;;;;48.65;16.25;;;0.10;99.90;;;;;;5034885;28;20033;-74
2021/12/07 05:57:22;;;;;;;71.38;17.27;;;0.10;99.90;;;;;;5034654;28;20082;-74
2021/12/07 05:59:48;;;;;;;58.65;16.65;;;0.10;99.90;;;;;;5054712;28;20044;-74
2021/12/07 06:02:14;;;;;;;54.65;15.15;;;0.00;99.90;;;;;;5040501;28;20508;-74
2021/12/07 06:04:39;;;;;;;61.78;16.17;;;0.00;99.90;;;;;;5054218;28;20067;-74
2021/12/07 06:07:05;;;;;;;50.90;16.33;;;0.00;99.90;;;;;;5054300;28;20126;-75
2021/12/07 06:09:31;;;;;;;50.78;16.55;;;0.00;99.90;;;;;;5033866;28;20167;-74
2021/12/07 06:11:57;;;;;;;61.83;16.65;;;0.00;99.90;;;;;;5054042;28;20037;-75
2021/12/07 06:14:29;;;;;;;60.05;18.23;;;-0.10;99.90;;;;;;5034677;28;20037;-75
2021/12/07 06:16:55;;;;;;;47.15;18.23;;;-0.10;99.90;;;;;;5045662;28;20461;-75
2021/12/07 06:19:21;;;;;;;55.38;18.08;;;0.00;99.90;;;;;;5054547;28;20135;-75
2021/12/07 06:21:46;;;;;;;58.67;17.50;;;0.00;99.90;;;;;;5033531;28;20049;-74
2021/12/07 06:24:12;;;;;;;52.70;17.92;;;0.00;99.90;;;;;;5050629;28;20045;-74
2021/12/07 06:26:37;;;;;;;47.33;18.23;;;0.00;99.90;;;;;;5034447;28;20041;-75
2021/12/07 06:29:04;;;;;;;52.10;18.25;;;0.10;99.90;;;;;;5034110;28;20041;-74
2021/12/07 06:31:29;;;;;;;52.50;19.02;;;0.20;99.90;;;;;;5040901;28;20040;-75
2021/12/07 06:33:55;;;;;;;55.83;17.83;;;0.20;99.90;;;;;;5045911;28;20040;-74
2021/12/07 06:36:21;;;;;;;56.42;17.70;;;0.20;99.90;;;;;;5050123;28;20036;-75
2021/12/07 06:38:47;;;;;;;54.97;17.65;;;0.30;99.90;;;;;;5035945;28;20552;-74
2021/12/07 06:41:13;;;;;;;58.13;18.05;;;0.30;99.90;;;;;;5048856;28;20041;-74
2021/12/07 06:43:40;;;;;;;52.95;16.73;;;0.30;99.90;;;;;;5033749;28;20547;-74
2021/12/07 06:46:06;;;;;;;52.97;17.70;;;0.30;99.90;;;;;;5034065;28;20405;-74
2021/12/07 06:48:31;;;;;;;56.22;17.40;;;0.30;99.90;;;;;;5039654;28;20044;-74
2021/12/07 06:50:57;;;;;;;65.43;16.95;;;0.30;99.90;;;;;;5051575;28;20493;-74
2021/12/07 06:53:23;;;;;;;56.50;16.20;;;0.30;99.90;;;;;;5052889;28;20040;-74
2021/12/07 06:55:48;;;;;;;55.35;16.05;;;0.20;99.90;;;;;;5035939;28;20044;-74
2021/12/07 06:58:14;;;;;;;53.60;16.38;;;0.20;99.90;;;;;;5045791;28;20122;-75
2021/12/07 07:00:39;;;;;;;50.63;16.00;;;0.20;99.90;;;;;;5035823;28;20144;-74
2021/12/07 07:03:05;;;;;;;42.67;15.50;;;0.10;99.90;;;;;;5034416;28;20094;-76
2021/12/07 07:05:31;;;;;;;46.17;14.85;;;0.10;99.90;;;;;;5053455;28;20129;-74
2021/12/07 07:07:57;;;;;;;46.53;16.42;;;0.20;99.90;;;;;;5044355;28;20040;-75
2021/12/07 07:10:23;;;;;;;43.00;14.50;;;0.20;99.90;;;;;;5053367;28;20037;-74
2021/12/07 07:12:49;;;;;;;49.00;14.88;;;0.20;99.90;;;;;;5052424;28;20032;-75
2021/12/07 07:15:15;;;;;;;41.10;14.18;;;0.20;99.90;;;;;;5053440;28;20041;-73
2021/12/07 07:17:41;;;;;;;53.35;15.55;;;0.30;99.90;;;;;;5034793;28;20103;-72
2021/12/07 07:20:12;;;;;;;47.22;14.75;;;0.40;99.90;;;;;;5033532;28;20080;-72
2021/12/07 07:22:38;;;;;;;63.67;16.13;;;0.40;99.90;;;;;;5040239;28;20047;-72
2021/12/07 07:25:06;;;;;;;48.45;14.52;;;0.40;99.90;;;;;;5053439;28;20040;-72
2021/12/07 07:27:32;;;;;;;48.80;15.60;;;0.40;99.90;;;;;;5052732;28;20041;-72
2021/12/07 07:29:57;;;;;;;52.50;14.45;;;0.50;99.90;;;;;;5049850;28;20091;-73
2021/12/07 07:32:23;;;;;;;63.78;14.73;;;0.50;99.90;;;;;;5052501;28;20455;-72
2021/12/07 07:34:49;;;;;;;36.80;13.18;;;0.60;99.90;;;;;;5053860;28;20032;-73
2021/12/07 07:37:15;;;;;;;64.57;15.23;;;0.50;99.90;;;;;;5053912;28;20041;-72
2021/12/07 07:39:41;;;;;;;39.17;12.80;;;0.50;99.90;;;;;;5056719;28;20048;-72
2021/12/07 07:42:07;;;;;;;48.25;13.50;;;0.50;99.90;;;;;;5057285;28;20495;-72
2021/12/07 07:44:33;;;;;;;53.13;13.98;;;0.50;99.90;;;;;;5055242;28;20029;-73
2021/12/07 07:46:58;;;;;;;40.30;13.40;;;0.50;99.90;;;;;;5056440;28;20078;-72
2021/12/07 07:49:24;;;;;;;51.40;14.07;;;0.50;99.90;;;;;;5052772;28;20087;-73
2021/12/07 07:51:49;;;;;;;63.67;14.52;;;0.50;99.90;;;;;;5049773;28;20119;-72
2021/12/07 07:54:15;;;;;;;60.60;14.25;;;0.60;99.90;;;;;;5056783;28;20044;-74
2021/12/07 07:56:41;;;;;;;45.58;13.65;;;0.60;99.90;;;;;;5039367;28;20040;-74
2021/12/07 07:59:06;;;;;;;42.78;13.15;;;0.60;99.90;;;;;;5034855;28;20517;-74
2021/12/07 08:01:32;;;;;;;56.50;13.88;;;0.60;99.90;;;;;;5037325;28;20033;-74
2021/12/07 08:04:01;;;;;;;44.67;13.27;;;0.50;99.90;;;;;;5048636;28;20036;-75
2021/12/07 08:06:40;;;;;;;53.28;13.30;;;0.50;99.90;;;;;;5164346;22;20031;-77
2021/12/07 08:09:16;;;;;;;30.25;13.07;;;0.50;99.90;;;;;;5016155;28;20057;-77
2021/12/07 08:12:05;;;;;;;50.08;12.40;;;0.50;99.90;;;;;;5017097;28;20049;-77
2021/12/07 08:14:41;;;;;;;35.08;12.25;;;0.50;99.90;;;;;;4996991;28;20052;-77
2021/12/07 08:17:13;;;;;;;44.55;11.98;;;0.50;99.90;;;;;;5020393;28;20044;-76
2021/12/07 08:19:44;;;;;;;33.30;11.88;;;0.50;99.90;;;;;;5040046;28;20041;-77
2021/12/07 08:22:30;;;;;;;45.08;13.75;;;0.50;99.90;;;;;;5057778;28;20075;-78
2021/12/07 08:24:57;;;;;;;38.72;11.45;;;0.50;99.90;;;;;;5020932;28;20036;-78
2021/12/07 08:27:31;;;;;;;34.38;12.15;;;0.50;99.90;;;;;;5023772;28;20032;-78
2021/12/07 08:29:57;;;;;;;35.50;11.40;;;0.60;99.90;;;;;;5019992;28;20051;-78
2021/12/07 08:32:23;;;;;;;43.85;11.85;;;0.60;99.90;;;;;;5020608;28;20045;-78
2021/12/07 08:34:49;;;;;;;40.50;11.55;;;0.60;99.90;;;;;;5034860;28;20036;-78
2021/12/07 08:37:17;;;;;;;42.60;13.00;;;0.70;99.90;;;;;;5040420;28;20094;-78
2021/12/07 08:39:51;;;;;;;39.25;12.38;;;0.70;99.90;;;;;;5040385;28;20082;-78
2021/12/07 08:42:20;;;;;;;39.83;12.48;;;0.70;99.90;;;;;;5041130;28;20467;-78
2021/12/07 08:45:00;;;;;;;38.67;13.05;;;0.70;99.90;;;;;;5022990;28;20055;-78
2021/12/07 08:47:30;;;;;;;37.00;12.38;;;0.80;99.90;;;;;;5020425;28;20033;-79
2021/12/07 08:50:00;;;;;;;35.97;12.75;;;0.80;99.90;;;;;;5021883;28;20049;-79
2021/12/07 08:52:29;;;;;;;43.25;13.80;;;0.70;99.90;;;;;;5037447;28;20040;-79
2021/12/07 09:00:27;;;;;;;48.58;14.02;;;0.80;99.90;;;;;;5057147;28;20087;-78
2021/12/07 09:03:04;;;;;;;51.00;14.65;;;0.80;99.90;;;;;;5029212;28;20049;-78
2021/12/07 09:05:36;;;;;;;52.58;14.25;;;0.80;99.90;;;;;;5020046;28;20041;-79
2021/12/07 09:08:22;;;;;;;42.75;13.40;;;0.80;99.90;;;;;;5020751;28;20041;-79
2021/12/07 09:10:54;;;;;;;42.22;14.02;;;1.00;99.90;;;;;;5031967;28;20053;-78
2021/12/07 09:13:36;;;;;;;49.55;15.18;;;0.90;99.90;;;;;;5019773;28;20098;-78
2021/12/07 09:16:03;;;;;;;50.03;14.13;;;1.00;99.90;;;;;;5036833;28;20499;-78
2021/12/07 09:18:43;;;;;;;44.60;13.80;;;1.00;99.90;;;;;;5036177;28;20045;-78
2021/12/07 09:21:27;;;;;;;46.83;14.20;;;1.00;99.90;;;;;;5037636;28;20041;-79
2021/12/07 09:24:02;;;;;;;34.95;14.05;;;1.10;99.90;;;;;;5032159;28;20051;-80
2021/12/07 09:27:00;;;;;;;34.47;13.43;;;1.10;99.90;;;;;;5046384;28;20115;-78
2021/12/07 09:29:28;;;;;;;48.47;13.95;;;1.20;99.90;;;;;;5019493;28;20041;-78
2021/12/07 09:31:55;;;;;;;43.55;12.68;;;1.20;99.90;;;;;;5017953;28;20156;-76
2021/12/07 09:34:52;;;;;;;44.35;14.15;;;1.30;99.90;;;;;;5025497;28;20469;-76
2021/12/07 09:37:18;;;;;;;42.47;12.30;;;1.40;99.90;;;;;;5029510;28;20386;-76
2021/12/07 09:39:44;;;;;;;41.63;12.85;;;1.50;99.90;;;;;;5047013;28;20041;-76
2021/12/07 09:42:10;;;;;;;34.08;12.07;;;1.50;99.90;;;;;;5017713;28;20039;-76
2021/12/07 09:44:38;;;;;;;35.65;12.50;;;1.60;99.90;;;;;;5017939;28;20091;-75
2021/12/07 09:47:04;;;;;;;50.50;12.73;;;1.60;99.90;;;;;;5032984;28;20040;-76
2021/12/07 09:49:34;;;;;;;37.17;12.25;;;1.70;99.90;;;;;;5017345;28;20124;-76
2021/12/07 09:52:02;;;;;;;45.08;13.07;;;1.70;99.90;;;;;;5017745;28;20500;-76
2021/12/07 09:54:36;;;;;;;38.03;12.43;;;1.70;99.90;;;;;;5017169;28;20044;-76
2021/12/07 09:57:05;;;;;;;40.33;13.60;;;1.80;99.90;;;;;;5033438;28;20029;-76
2021/12/07 09:59:31;;;;;;;38.63;13.68;;;1.90;99.90;;;;;;5018268;28;20127;-76
2021/12/07 10:01:59;;;;;;;31.10;12.98;;;1.90;99.90;;;;;;5017833;28;20136;-75
2021/12/07 10:04:27;;;;;;;34.67;13.68;;;1.90;99.90;;;;;;5017946;28;20468;-76
2021/12/07 10:06:54;;;;;;;34.22;13.18;;;2.00;99.90;;;;;;5034479;28;20177;-75
2021/12/07 10:09:24;;;;;;;32.72;13.75;;;2.00;99.90;;;;;;5017862;28;20040;-75
2021/12/07 10:12:02;;;;;;;38.88;13.98;;;2.10;99.90;;;;;;5020244;28;20053;-76
2021/12/07 10:14:45;;;;;;;37.97;13.85;;;2.10;99.90;;;;;;5016928;28;20500;-76
2021/12/07 10:17:24;;;;;;;31.83;13.93;;;2.20;99.90;;;;;;5014078;28;20034;-78
2021/12/07 10:19:53;;;;;;;36.58;14.23;;;2.20;99.90;;;;;;5016551;28;20053;-77
2021/12/07 10:25:35;;;;;;;29.25;13.85;;;2.30;99.90;;;;;;5032241;28;20045;-76
2021/12/07 10:28:26;;;;;;;28.85;13.07;;;2.40;99.90;;;;;;5019736;28;20052;-77
2021/12/07 10:31:17;;;;;;;33.33;14.40;;;2.50;99.90;;;;;;4953010;28;20055;-77
2021/12/07 10:34:07;;;;;;;38.00;15.82;;;2.50;99.90;;;;;;5015240;28;20072;-76
2021/12/07 10:36:46;;;;;;;38.58;15.52;;;2.60;99.90;;;;;;5016361;28;20068;-76
2021/12/07 10:39:20;;;;;;;;;;;2.70;99.90;;;;;;5023472;28;20052;-75
2021/12/07 10:42:05;;;;;;;36.95;14.60;;;2.80;99.90;;;;;;5035615;28;19923;-77
2021/12/07 10:44:43;;;;;;;29.67;14.18;;;2.80;99.90;;;;;;5016652;28;20033;-76
2021/12/07 10:47:17;;;;;;;32.40;14.68;;;2.90;99.90;;;;;;5016683;28;20040;-76
2021/12/07 10:49:50;;;;;;;32.60;15.23;;;2.90;99.90;;;;;;5018560;28;20041;-76
2021/12/07 10:52:48;;;;;;;33.13;14.52;;;3.00;99.90;;;;;;5031354;28;20037;-76
2021/12/07 10:55:20;;;;;;;28.58;14.77;;;3.10;99.90;;;;;;5021220;28;20516;-76
2021/12/07 10:57:58;;;;;;;38.72;15.20;;;3.20;99.90;;;;;;5018937;28;20463;-76
2021/12/07 11:00:34;;;;;;;30.98;14.82;;;3.20;99.90;;;;;;5018742;28;20055;-76
2021/12/07 11:03:11;;;;;;;37.65;14.88;;;3.30;99.90;;;;;;5033192;28;20037;-77
2021/12/07 11:05:46;;;;;;;34.53;14.20;;;3.40;99.90;;;;;;5034051;28;20633;-77
2021/12/07 11:08:20;;;;;;;29.67;14.15;;;3.50;99.90;;;;;;5016901;28;20110;-76
2021/12/07 11:10:50;;;;;;;25.03;14.47;;;3.60;99.90;;;;;;5015645;28;20085;-76
2021/12/07 11:13:34;;;;;;;32.45;14.68;;;3.70;99.90;;;;;;5016219;28;20554;-76
2021/12/07 11:16:06;;;;;;;26.48;14.40;;;3.90;99.90;;;;;;5028791;28;20440;-76
2021/12/07 11:18:38;;;;;;;27.73;14.10;;;4.40;99.90;;;;;;5016449;28;20052;-76
2021/12/07 11:21:17;;;;;;;23.38;12.93;;;4.80;99.90;;;;;;5018011;28;20055;-76
2021/12/07 11:23:52;;;;;;;23.98;11.18;;;5.30;99.90;;;;;;5010748;28;20052;-77
2021/12/07 11:31:57;;;;;;;20.30;10.35;;;6.40;99.90;;;;;;5037891;28;20037;-77
2021/12/07 11:34:39;;;;;;;18.13;8.90;;;6.40;99.90;;;;;;5027027;28;20092;-77
2021/12/07 11:37:12;;;;;;;18.58;9.45;;;6.40;99.90;;;;;;5018538;28;20409;-78
2021/12/07 11:40:09;;;;;;;14.65;7.53;;;6.30;99.90;;;;;;5022786;28;20045;-78
2021/12/07 11:42:42;;;;;;;19.60;8.15;;;6.10;99.90;;;;;;5029568;28;20053;-78
2021/12/07 11:45:26;;;;;;;14.35;7.60;;;5.90;99.90;;;;;;5014123;28;20045;-78
2021/12/07 11:47:59;;;;;;;16.17;6.97;;;5.80;99.90;;;;;;5022936;28;20037;-79
2021/12/07 11:50:24;;;;;;;;;;;5.80;99.90;;;;;;5018090;28;20033;-78
2021/12/07 11:52:57;;;;;;;15.05;7.10;;;5.90;99.90;;;;;;5033169;28;19917;-78
2021/12/07 11:55:27;;;;;;;16.85;6.63;;;6.20;99.90;;;;;;5029895;28;20045;-78
2021/12/07 11:57:56;;;;;;;14.60;6.60;;;6.30;99.90;;;;;;5034533;28;20040;-77
2021/12/07 12:00:29;;;;;;;15.70;6.47;;;6.20;99.90;;;;;;5033775;28;20029;-79
2021/12/07 12:02:58;;;;;;;13.43;5.90;;;6.20;99.90;;;;;;5027615;28;20045;-77
2021/12/07 12:05:28;;;;;;;11.68;6.10;;;6.20;99.90;;;;;;5039644;28;20068;-77
2021/12/07 12:07:57;;;;;;;16.10;6.85;;;6.30;99.90;;;;;;5038256;28;20066;-77
2021/12/07 12:10:29;;;;;;;13.27;6.80;;;6.40;99.90;;;;;;5042782;28;20107;-77
2021/12/07 12:13:40;;;;;;;13.05;5.68;;;6.90;99.90;;;;;;5028605;28;20049;-77
2021/12/07 12:16:52;;;;;;;16.05;6.15;;;7.60;99.90;;;;;;5043938;28;20048;-77
2021/12/07 12:19:43;;;;;;;17.20;6.07;;;7.90;99.90;;;;;;5058488;28;20041;-78
2021/12/07 12:22:44;;;;;;;13.38;5.82;;;7.70;99.90;;;;;;5027099;28;20041;-78
2021/12/07 12:25:18;;;;;;;12.70;6.25;;;7.50;99.90;;;;;;5047590;28;20067;-77
2021/12/07 12:27:47;;;;;;;10.25;5.57;;;7.30;99.90;;;;;;5031077;28;20051;-77
2021/12/07 12:30:41;;;;;;;12.53;6.33;;;7.10;99.90;;;;;;5045059;28;20048;-77
2021/12/07 12:33:19;;;;;;;13.70;5.93;;;6.90;99.90;;;;;;5026282;28;20049;-77
2021/12/07 12:35:54;;;;;;;12.43;6.10;;;6.70;99.90;;;;;;5043263;28;20147;-77
2021/12/07 12:38:31;;;;;;;13.30;5.72;;;6.70;99.90;;;;;;5029579;28;20044;-77
2021/12/07 12:41:11;;;;;;;11.15;5.78;;;6.70;99.90;;;;;;5029123;28;20112;-77
2021/12/07 12:43:52;;;;;;;15.00;7.50;;;6.70;99.90;;;;;;5026825;28;20140;-77
2021/12/07 12:46:33;;;;;;;19.10;7.00;;;6.70;99.90;;;;;;5027228;28;20040;-78
2021/12/07 12:49:23;;;;;;;14.45;6.82;;;6.90;99.90;;;;;;5016851;28;20146;-77
2021/12/07 12:51:59;;;;;;;13.32;7.20;;;6.70;99.90;;;;;;5022362;28;20041;-78
2021/12/07 12:54:45;;;;;;;13.38;7.45;;;6.60;99.90;;;;;;5017178;28;20085;-77
2021/12/07 12:57:25;;;;;;;15.07;7.40;;;6.40;99.90;;;;;;5014135;28;20033;-77
2021/12/07 12:59:51;;;;;;;14.98;7.85;;;6.30;99.90;;;;;;5026771;28;20041;-77
2021/12/07 13:02:20;;;;;;;19.02;9.50;;;6.10;99.90;;;;;;5042036;28;20091;-77
2021/12/07 13:05:16;;;;;;;13.77;8.23;;;6.00;99.90;;;;;;5026609;28;20068;-77
2021/12/07 13:08:15;;;;;;;19.38;9.70;;;5.80;99.90;;;;;;5040921;28;20044;-77
2021/12/07 13:11:17;;;;;;;14.63;9.88;;;5.70;99.90;;;;;;5033824;28;20037;-77
2021/12/07 13:13:50;;;;;;;14.38;10.73;;;5.50;99.90;;;;;;5024428;28;20037;-78
2021/12/07 13:16:34;;;;;;;19.98;10.93;;;5.50;99.90;;;;;;5041623;28;20044;-78
2021/12/07 13:19:02;;;;;;;16.67;10.73;;;5.50;99.90;;;;;;5022622;28;20382;-77
2021/12/07 13:21:42;;;;;;;18.65;10.95;;;5.40;99.90;;;;;;5022579;28;20107;-77
2021/12/07 13:24:15;;;;;;;18.75;11.70;;;5.30;99.90;;;;;;5038401;28;20051;-78
2021/12/07 13:26:54;;;;;;;18.55;12.00;;;5.20;99.90;;;;;;5022146;28;20041;-78
2021/12/07 13:29:25;;;;;;;25.65;12.32;;;5.20;99.90;;;;;;5026083;28;20045;-77
2021/12/07 13:32:07;;;;;;;22.58;13.00;;;5.10;99.90;;;;;;5023954;28;20041;-77
2021/12/07 13:34:41;;;;;;;23.52;12.48;;;5.00;99.90;;;;;;5023467;28;20097;-77
2021/12/07 13:37:14;;;;;;;23.13;12.32;;;5.00;99.90;;;;;;5022283;28;20131;-77
2021/12/07 13:39:56;;;;;;;22.48;12.68;;;4.90;99.90;;;;;;5023247;28;20075;-77
2021/12/07 13:42:28;;;;;;;21.70;12.60;;;4.80;99.90;;;;;;5023396;28;20037;-77
2021/12/07 13:45:09;;;;;;;22.85;13.13;;;4.80;99.90;;;;;;5022569;28;20045;-78
2021/12/07 13:47:46;;;;;;;21.40;13.10;;;4.70;99.90;;;;;;5024525;28;20586;-77
2021/12/07 13:50:30;;;;;;;19.45;12.65;;;4.70;99.90;;;;;;5020635;28;20041;-77
2021/12/07 13:53:13;;;;;;;21.20;12.55;;;4.60;99.90;;;;;;5030828;28;20104;-76
2021/12/07 13:58:51;;;;;;;;;;;4.50;99.90;;;;;;5088569;22;20083;-78
2021/12/07 14:01:32;;;;;;;25.02;12.88;;;4.50;99.90;;;;;;5010319;28;19917;-78
2021/12/07 14:04:06;;;;;;;23.35;14.60;;;4.40;99.90;;;;;;4951501;28;20047;-77
2021/12/07 14:06:49;;;;;;;26.23;14.18;;;4.30;99.90;;;;;;4969016;28;20108;-77
2021/12/07 14:09:19;;;;;;;22.50;13.32;;;4.30;99.90;;;;;;5007908;28;20050;-77
2021/12/07 14:12:03;;;;;;;21.95;14.10;;;4.20;99.90;;;;;;4998247;28;20038;-77
2021/12/07 14:14:32;;;;;;;24.40;13.70;;;4.20;99.90;;;;;;4997498;28;20077;-77
2021/12/07 14:17:01;;;;;;;27.05;14.05;;;4.10;99.90;;;;;;4998209;28;20216;-78
2021/12/07 14:19:35;;;;;;;21.80;12.80;;;4.10;99.90;;;;;;4998515;28;20116;-78
2021/12/07 14:22:06;;;;;;;24.20;13.43;;;4.00;99.90;;;;;;4998450;28;20441;-77
2021/12/07 14:24:32;;;;;;;23.67;14.13;;;4.00;99.90;;;;;;4997483;28;20132;-77
2021/12/07 14:27:03;;;;;;;29.85;14.50;;;3.90;99.90;;;;;;4998598;28;20120;-77
2021/12/07 14:29:34;;;;;;;27.13;13.80;;;3.90;99.90;;;;;;4998261;28;20052;-77
2021/12/07 14:32:01;;;;;;;25.83;13.20;;;3.80;99.90;;;;;;4997759;28;20044;-78
2021/12/07 14:34:32;;;;;;;19.92;13.63;;;3.80;99.90;;;;;;4997456;28;20045;-77
2021/12/07 14:37:29;;;;;;;21.55;13.20;;;3.70;99.90;;;;;;4997968;28;20409;-77
2021/12/07 14:40:00;;;;;;;20.08;12.43;;;3.70;99.90;;;;;;4996097;28;20052;-77
2021/12/07 14:42:28;;;;;;;25.10;12.35;;;3.60;99.90;;;;;;4998015;28;20033;-77